Time;durP1;ratioP1;P1;durP2;ratioP2;P2;SDS_P1;SDS_P2;PMS_P1;PMS_P2;Temp;Humidity;BMP_temperature;BMP_pressure;BME280_temperature;BME280_humidity;BME280_pressure;Samples;Min_cycle;Max_cycle;Signal;HPM_P1;HPM_P2
2023/03/17 00:00:40;;;;;;;;;;;12.10;99.90;;;;;;7336271;19;110204;-69
2023/03/17 00:03:09;;;;;;;;;;;12.10;99.90;;;;;;7341323;19;109495;-69
2023/03/17 00:05:36;;;;;;;;;;;12.10;99.90;;;;;;7339149;19;109199;-69
2023/03/17 00:08:11;;;;;;;;;;;12.20;99.90;;;;;;7341348;19;108728;-71
2023/03/17 00:10:38;;;;;;;;;;;12.20;99.90;;;;;;7343546;19;111013;-69
2023/03/17 00:13:05;;;;;;;;;;;12.20;99.90;;;;;;7340123;19;111192;-69
2023/03/17 00:15:32;;;;;;;;;;;12.10;99.90;;;;;;7339956;19;108602;-69
2023/03/17 00:17:59;;;;;;;;;;;12.10;99.90;;;;;;7338250;19;109401;-69
2023/03/17 00:20:31;;;;;;;;;;;12.00;99.90;;;;;;7337815;19;109567;-69
2023/03/17 00:23:00;;;;;;;;;;;12.10;99.90;;;;;;7341047;19;109168;-69
2023/03/17 00:25:28;;;;;;;;;;;12.00;99.90;;;;;;7339211;19;109868;-69
2023/03/17 00:27:57;;;;;;;;;;;12.00;99.90;;;;;;7335365;19;109034;-69
2023/03/17 00:30:24;;;;;;;;;;;11.90;99.90;;;;;;7338488;19;108661;-69
2023/03/17 00:32:52;;;;;;;;;;;11.90;99.90;;;;;;7343007;19;110345;-69
2023/03/17 00:35:21;;;;;;;;;;;11.90;99.90;;;;;;7335089;19;110515;-69
2023/03/17 00:37:51;;;;;;;;;;;11.90;99.90;;;;;;7339470;19;109851;-69
2023/03/17 00:40:19;;;;;;;;;;;11.90;99.90;;;;;;7339478;19;109010;-69
2023/03/17 00:42:46;;;;;;;;;;;11.90;99.90;;;;;;7336233;19;109953;-69
2023/03/17 00:45:14;;;;;;;;;;;11.80;99.90;;;;;;7338934;19;109413;-69
2023/03/17 00:47:42;;;;;;;;;;;11.80;99.90;;;;;;7335974;19;109509;-71
2023/03/17 00:50:10;;;;;;;;;;;11.70;99.90;;;;;;7339799;19;109515;-69
2023/03/17 00:52:37;;;;;;;;;;;11.70;99.90;;;;;;7338587;19;109742;-69
2023/03/17 00:55:05;;;;;;;;;;;11.70;99.90;;;;;;7343262;19;110057;-69
2023/03/17 00:57:33;;;;;;;;;;;11.60;99.90;;;;;;7334847;19;110081;-69
2023/03/17 01:00:00;;;;;;;;;;;11.60;99.90;;;;;;7337586;19;108971;-69
2023/03/17 01:02:28;;;;;;;;;;;11.70;99.90;;;;;;7336939;19;110499;-69
2023/03/17 01:04:56;;;;;;;;;;;11.60;99.90;;;;;;7340573;19;109245;-71
2023/03/17 01:07:32;;;;;;;;;;;11.60;99.90;;;;;;7338667;19;108799;-71
2023/03/17 01:09:59;;;;;;;;;;;11.60;99.90;;;;;;7338439;19;110744;-69
2023/03/17 01:12:26;;;;;;;;;;;11.70;99.90;;;;;;7336338;19;109280;-69
2023/03/17 01:14:53;;;;;;;;;;;11.60;99.90;;;;;;7338364;19;109195;-69
2023/03/17 01:17:20;;;;;;;;;;;11.60;99.90;;;;;;7342780;19;109071;-69
2023/03/17 01:19:48;;;;;;;;;;;11.60;99.90;;;;;;7338403;19;109243;-69
2023/03/17 01:22:15;;;;;;;;;;;11.60;99.90;;;;;;7337985;19;109132;-73
2023/03/17 01:24:42;;;;;;;;;;;11.60;99.90;;;;;;7336535;19;109592;-72
2023/03/17 01:27:09;;;;;;;;;;;11.60;99.90;;;;;;7333230;19;109465;-75
2023/03/17 01:29:36;;;;;;;;;;;11.50;99.90;;;;;;7333678;19;108563;-74
2023/03/17 01:32:03;;;;;;;;;;;11.60;99.90;;;;;;7334819;19;110239;-73
2023/03/17 01:34:31;;;;;;;;;;;11.50;99.90;;;;;;7335075;19;109850;-72
2023/03/17 01:36:58;;;;;;;;;;;11.50;99.90;;;;;;7338848;19;109592;-73
2023/03/17 01:39:26;;;;;;;;;;;11.50;99.90;;;;;;7336384;19;111252;-76
2023/03/17 01:44:59;;;;;;;;;;;11.40;99.90;;;;;;7325681;19;113327;-75
2023/03/17 01:47:30;;;;;;;;;;;11.40;99.90;;;;;;7337415;19;108635;-74
2023/03/17 01:50:06;;;;;;;;;;;11.50;99.90;;;;;;7336855;19;109195;-74
2023/03/17 01:52:37;;;;;;;;;;;11.40;99.90;;;;;;7334920;19;109746;-76
2023/03/17 01:55:07;;;;;;;;;;;11.40;99.90;;;;;;7336780;19;109183;-80
2023/03/17 01:57:35;;;;;;;;;;;11.40;99.90;;;;;;7336490;19;109089;-79
2023/03/17 02:00:05;;;;;;;;;;;11.30;99.90;;;;;;7335496;19;110914;-72
2023/03/17 02:02:35;;;;;;;;;;;11.30;99.90;;;;;;7336325;19;111472;-78
2023/03/17 02:05:03;;;;;;;;;;;11.30;99.90;;;;;;7335918;19;110183;-73
2023/03/17 02:07:31;;;;;;;;;;;11.30;99.90;;;;;;7333295;19;110534;-70
2023/03/17 02:09:59;;;;;;;;;;;11.30;99.90;;;;;;7336262;19;108907;-70
2023/03/17 02:12:27;;;;;;;;;;;11.30;99.90;;;;;;7334876;19;110036;-74
2023/03/17 02:14:55;;;;;;;;;;;11.30;99.90;;;;;;7335768;19;109124;-70
2023/03/17 02:17:23;;;;;;;;;;;11.30;99.90;;;;;;7334600;19;109275;-70
2023/03/17 02:19:51;;;;;;;;;;;11.30;99.90;;;;;;7334258;19;109290;-70
2023/03/17 02:22:19;;;;;;;;;;;11.30;99.90;;;;;;7339435;19;108878;-70
2023/03/17 02:24:54;;;;;;;;;;;11.30;99.90;;;;;;7327166;19;110887;-70
2023/03/17 02:27:32;;;;;;;;;;;11.30;99.90;;;;;;7332408;19;110294;-70
2023/03/17 02:29:59;;;;;;;;;;;11.30;99.90;;;;;;7332184;19;109760;-70
2023/03/17 02:32:26;;;;;;;;;;;11.30;99.90;;;;;;7333464;19;113141;-70
2023/03/17 02:34:54;;;;;;;;;;;11.20;99.90;;;;;;7333462;19;110022;-70
2023/03/17 02:37:20;;;;;;;;;;;11.20;99.90;;;;;;7333556;19;109224;-70
2023/03/17 02:39:47;;;;;;;;;;;11.20;99.90;;;;;;7332351;19;109819;-70
2023/03/17 02:42:14;;;;;;;;;;;11.20;99.90;;;;;;7334647;19;108532;-70
2023/03/17 02:44:42;;;;;;;;;;;11.20;99.90;;;;;;7336672;19;109147;-70
2023/03/17 02:47:09;;;;;;;;;;;11.20;99.90;;;;;;7334658;19;111172;-70
2023/03/17 02:49:37;;;;;;;;;;;11.10;99.90;;;;;;7328820;19;110662;-70
2023/03/17 02:52:04;;;;;;;;;;;11.10;99.90;;;;;;7331378;19;109111;-70
2023/03/17 02:54:31;;;;;;;;;;;11.10;99.90;;;;;;7333101;19;108749;-70
2023/03/17 02:56:59;;;;;;;;;;;11.10;99.90;;;;;;7330809;19;108785;-70
2023/03/17 02:59:26;;;;;;;;;;;11.10;99.90;;;;;;7332121;19;109865;-70
2023/03/17 03:01:54;;;;;;;;;;;11.10;99.90;;;;;;7334914;19;108936;-70
2023/03/17 03:04:23;;;;;;;;;;;11.10;99.90;;;;;;7331650;19;108622;-70
2023/03/17 03:06:50;;;;;;;;;;;11.00;99.90;;;;;;7336181;19;110008;-70
2023/03/17 03:09:16;;;;;;;;;;;11.00;99.90;;;;;;7331935;19;110054;-70
2023/03/17 03:11:44;;;;;;;;;;;11.00;99.90;;;;;;7338983;19;110231;-70
2023/03/17 03:14:12;;;;;;;;;;;11.00;99.90;;;;;;7341470;19;108840;-70
2023/03/17 03:16:39;;;;;;;;;;;11.00;99.90;;;;;;7338875;19;109766;-70
2023/03/17 03:19:06;;;;;;;;;;;11.00;99.90;;;;;;7339762;19;110285;-70
2023/03/17 03:21:33;;;;;;;;;;;10.90;99.90;;;;;;7338801;19;108664;-70
2023/03/17 03:24:01;;;;;;;;;;;10.90;99.90;;;;;;7340325;19;109567;-68
2023/03/17 03:26:28;;;;;;;;;;;10.90;99.90;;;;;;7338465;19;111022;-69
2023/03/17 03:28:57;;;;;;;;;;;10.90;99.90;;;;;;7346067;19;108857;-68
2023/03/17 03:31:24;;;;;;;;;;;10.80;99.90;;;;;;7340009;19;111132;-68
2023/03/17 03:33:52;;;;;;;;;;;10.80;99.90;;;;;;7339314;19;108961;-68
2023/03/17 03:36:19;;;;;;;;;;;10.80;99.90;;;;;;7338836;19;109289;-68
2023/03/17 03:38:46;;;;;;;;;;;10.80;99.90;;;;;;7339114;19;110181;-69
2023/03/17 03:41:14;;;;;;;;;;;10.80;99.90;;;;;;7338889;19;110437;-68
2023/03/17 03:43:41;;;;;;;;;;;10.70;99.90;;;;;;7339658;19;110445;-68
2023/03/17 03:46:08;;;;;;;;;;;10.80;99.90;;;;;;7338113;19;112856;-68
2023/03/17 03:48:35;;;;;;;;;;;10.70;99.90;;;;;;7343365;19;109154;-68
2023/03/17 03:51:02;;;;;;;;;;;10.70;99.90;;;;;;7333203;19;110052;-69
2023/03/17 03:53:29;;;;;;;;;;;10.70;99.90;;;;;;7333231;19;110966;-68
2023/03/17 03:55:56;;;;;;;;;;;10.60;99.90;;;;;;7337021;19;109882;-68
2023/03/17 03:58:23;;;;;;;;;;;10.60;99.90;;;;;;7333445;19;110307;-69
2023/03/17 04:00:50;;;;;;;;;;;10.60;99.90;;;;;;7338167;19;110423;-68
2023/03/17 04:03:17;;;;;;;;;;;10.60;99.90;;;;;;7334900;19;111142;-70
2023/03/17 04:05:45;;;;;;;;;;;10.60;99.90;;;;;;7333007;19;109864;-69
2023/03/17 04:08:12;;;;;;;;;;;10.60;99.90;;;;;;7336847;19;109938;-69
2023/03/17 04:10:39;;;;;;;;;;;10.50;99.90;;;;;;7342210;19;108876;-69
2023/03/17 04:13:07;;;;;;;;;;;10.50;99.90;;;;;;7336103;19;109266;-69
2023/03/17 04:15:34;;;;;;;;;;;10.50;99.90;;;;;;7337234;19;108798;-69
2023/03/17 04:18:01;;;;;;;;;;;10.50;99.90;;;;;;7335282;19;109216;-69
2023/03/17 04:20:28;;;;;;;;;;;10.50;99.90;;;;;;7334596;19;109504;-69
2023/03/17 04:22:56;;;;;;;;;;;10.50;99.90;;;;;;7336224;19;108655;-69
2023/03/17 04:25:23;;;;;;;;;;;10.50;99.90;;;;;;7338185;19;111018;-69
2023/03/17 04:27:50;;;;;;;;;;;10.50;99.90;;;;;;7337141;19;109199;-69
2023/03/17 04:30:17;;;;;;;;;;;10.50;99.90;;;;;;7332394;19;110773;-69
2023/03/17 04:32:45;;;;;;;;;;;10.50;99.90;;;;;;7339898;19;110617;-69
2023/03/17 04:35:16;;;;;;;;;;;10.50;99.90;;;;;;7335218;19;109991;-69
2023/03/17 04:37:43;;;;;;;;;;;10.50;99.90;;;;;;7333623;19;110150;-69
2023/03/17 04:40:11;;;;;;;;;;;10.40;99.90;;;;;;7337218;19;108670;-69
2023/03/17 04:42:38;;;;;;;;;;;10.40;99.90;;;;;;7140573;19;3702310;-69
2023/03/17 04:45:06;;;;;;;;;;;10.50;99.90;;;;;;7338440;19;109646;-70
2023/03/17 04:47:32;;;;;;;;;;;10.50;99.90;;;;;;7333217;19;109737;-69
2023/03/17 04:50:00;;;;;;;;;;;10.40;99.90;;;;;;7341323;19;108988;-69
2023/03/17 04:52:27;;;;;;;;;;;10.40;99.90;;;;;;7337769;19;110429;-70
2023/03/17 04:54:54;;;;;;;;;;;10.40;99.90;;;;;;7341368;19;109015;-70
2023/03/17 04:57:23;;;;;;;;;;;10.40;99.90;;;;;;7336978;19;110437;-69
2023/03/17 04:59:50;;;;;;;;;;;10.40;99.90;;;;;;7337629;19;110405;-70
2023/03/17 05:02:17;;;;;;;;;;;10.40;99.90;;;;;;7337216;19;110641;-69
2023/03/17 05:04:45;;;;;;;;;;;10.40;99.90;;;;;;7334109;19;110534;-69
2023/03/17 05:07:12;;;;;;;;;;;10.40;99.90;;;;;;7339007;19;110066;-70
2023/03/17 05:09:39;;;;;;;;;;;10.40;99.90;;;;;;7336015;19;108489;-69
2023/03/17 05:12:08;;;;;;;;;;;10.40;99.90;;;;;;7336281;19;109313;-69
2023/03/17 05:14:35;;;;;;;;;;;10.40;99.90;;;;;;7335124;19;110208;-69
2023/03/17 05:17:02;;;;;;;;;;;10.40;99.90;;;;;;7344776;19;109395;-69
2023/03/17 05:19:29;;;;;;;;;;;10.40;99.90;;;;;;7334108;19;109669;-69
2023/03/17 05:21:56;;;;;;;;;;;10.30;99.90;;;;;;7337829;19;109117;-70
2023/03/17 05:24:24;;;;;;;;;;;10.30;99.90;;;;;;7333784;19;111052;-69
2023/03/17 05:26:51;;;;;;;;;;;10.30;99.90;;;;;;7335752;19;108658;-74
2023/03/17 05:29:18;;;;;;;;;;;10.20;99.90;;;;;;7338290;19;108979;-69
2023/03/17 05:31:46;;;;;;;;;;;10.20;99.90;;;;;;7335499;19;110101;-70
2023/03/17 05:34:14;;;;;;;;;;;10.20;99.90;;;;;;7334901;19;108820;-69
2023/03/17 05:36:41;;;;;;;;;;;10.20;99.90;;;;;;7335255;19;109081;-69
2023/03/17 05:39:08;;;;;;;;;;;10.20;99.90;;;;;;7338827;19;109241;-69
2023/03/17 05:41:35;;;;;;;;;;;10.10;99.90;;;;;;7336307;19;109180;-69
2023/03/17 05:44:02;;;;;;;;;;;10.10;99.90;;;;;;7333651;19;109209;-70
2023/03/17 05:46:29;;;;;;;;;;;10.10;99.90;;;;;;7334929;19;108519;-70
2023/03/17 05:48:56;;;;;;;;;;;10.10;99.90;;;;;;7336385;19;109518;-71
2023/03/17 05:51:23;;;;;;;;;;;10.10;99.90;;;;;;7334888;19;109726;-70
2023/03/17 05:53:50;;;;;;;;;;;10.10;99.90;;;;;;7332528;19;108651;-69
2023/03/17 05:56:17;;;;;;;;;;;10.10;99.90;;;;;;7336985;19;109518;-69
2023/03/17 05:58:44;;;;;;;;;;;10.10;99.90;;;;;;7338216;19;110414;-69
2023/03/17 06:01:11;;;;;;;;;;;10.10;99.90;;;;;;7335903;19;109871;-69
2023/03/17 06:03:38;;;;;;;;;;;10.10;99.90;;;;;;7334713;19;110443;-69
2023/03/17 06:06:05;;;;;;;;;;;10.00;99.90;;;;;;7336144;19;109389;-69
2023/03/17 06:08:32;;;;;;;;;;;10.00;99.90;;;;;;7333572;19;109963;-69
2023/03/17 06:10:59;;;;;;;;;;;10.00;99.90;;;;;;7332000;19;110365;-69
2023/03/17 06:13:26;;;;;;;;;;;10.00;99.90;;;;;;7335511;19;108728;-69
2023/03/17 06:15:53;;;;;;;;;;;10.00;99.90;;;;;;7334237;19;108940;-70
2023/03/17 06:18:20;;;;;;;;;;;10.00;99.90;;;;;;7334251;19;110174;-70
2023/03/17 06:20:48;;;;;;;;;;;10.00;99.90;;;;;;7336109;19;109636;-70
2023/03/17 06:23:15;;;;;;;;;;;10.00;99.90;;;;;;7337181;19;109619;-69
2023/03/17 06:25:43;;;;;;;;;;;10.00;99.90;;;;;;7334023;19;110904;-69
2023/03/17 06:28:10;;;;;;;;;;;10.00;99.90;;;;;;7336684;19;108963;-69
2023/03/17 06:30:37;;;;;;;;;;;9.90;99.90;;;;;;7335440;19;110220;-70
2023/03/17 06:33:06;;;;;;;;;;;10.00;99.90;;;;;;7335135;19;109900;-69
2023/03/17 06:35:34;;;;;;;;;;;10.00;99.90;;;;;;7332867;19;109238;-69
2023/03/17 06:38:02;;;;;;;;;;;10.00;99.90;;;;;;7336769;19;110104;-69
2023/03/17 06:40:29;;;;;;;;;;;10.00;99.90;;;;;;7330577;19;108902;-69
2023/03/17 06:42:57;;;;;;;;;;;10.00;99.90;;;;;;7337843;19;109963;-69
2023/03/17 06:45:24;;;;;;;;;;;10.00;99.90;;;;;;7336319;19;109448;-69
2023/03/17 06:47:51;;;;;;;;;;;10.00;99.90;;;;;;7339618;19;109006;-69
2023/03/17 06:50:18;;;;;;;;;;;10.00;99.90;;;;;;7340765;19;110164;-69
2023/03/17 06:52:45;;;;;;;;;;;10.10;99.90;;;;;;7340335;19;109517;-69
2023/03/17 06:55:12;;;;;;;;;;;10.10;99.90;;;;;;7338830;19;109215;-71
2023/03/17 06:57:39;;;;;;;;;;;10.20;99.90;;;;;;7339633;19;110642;-69
2023/03/17 07:00:07;;;;;;;;;;;10.20;99.90;;;;;;7338510;19;110386;-73
2023/03/17 07:02:34;;;;;;;;;;;10.20;99.90;;;;;;7337824;19;108866;-75
2023/03/17 07:05:03;;;;;;;;;;;10.30;99.90;;;;;;7345734;19;109382;-74
2023/03/17 07:07:30;;;;;;;;;;;10.30;99.90;;;;;;7341186;19;109972;-74
2023/03/17 07:09:57;;;;;;;;;;;10.30;99.90;;;;;;7340745;19;109390;-74
2023/03/17 07:12:24;;;;;;;;;;;10.40;99.90;;;;;;7341033;19;108644;-75
2023/03/17 07:14:51;;;;;;;;;;;10.40;99.90;;;;;;7341766;19;110861;-75
2023/03/17 07:17:19;;;;;;;;;;;10.40;99.90;;;;;;7339887;19;109143;-75
2023/03/17 07:19:46;;;;;;;;;;;10.40;99.90;;;;;;7339662;19;108937;-74
2023/03/17 07:22:13;;;;;;;;;;;10.40;99.90;;;;;;7339068;19;112737;-75
2023/03/17 07:24:43;;;;;;;;;;;10.50;99.90;;;;;;7340956;19;110154;-74
2023/03/17 07:27:10;;;;;;;;;;;10.60;99.90;;;;;;7346562;19;108210;-75
2023/03/17 07:29:37;;;;;;;;;;;10.60;99.90;;;;;;7341984;19;110599;-76
2023/03/17 07:32:06;;;;;;;;;;;10.70;99.90;;;;;;7343185;19;109463;-74
2023/03/17 07:34:34;;;;;;;;;;;10.70;99.90;;;;;;7340312;19;109086;-78
2023/03/17 07:37:02;;;;;;;;;;;10.70;99.90;;;;;;7343155;19;109777;-77
2023/03/17 07:39:29;;;;;;;;;;;10.70;99.90;;;;;;7338576;19;109202;-75
2023/03/17 07:41:56;;;;;;;;;;;10.80;99.90;;;;;;7341877;19;111147;-74
2023/03/17 07:44:24;;;;;;;;;;;10.90;99.90;;;;;;7353626;19;109214;-87
2023/03/17 07:46:51;;;;;;;;;;;10.90;99.90;;;;;;7374049;19;107927;-87
2023/03/17 07:49:19;;;;;;;;;;;11.00;99.90;;;;;;7384075;19;109448;-87
2023/03/17 07:52:07;;;;;;;;;;;11.10;99.90;;;;;;7370275;19;108685;-87
2023/03/17 07:54:35;;;;;;;;;;;11.20;99.90;;;;;;7348109;19;108697;-87
2023/03/17 07:57:02;;;;;;;;;;;11.20;99.90;;;;;;7340731;19;111498;-88
2023/03/17 07:59:30;;;;;;;;;;;11.30;99.90;;;;;;7343636;19;109059;-88
2023/03/17 08:01:58;;;;;;;;;;;11.40;99.90;;;;;;7341428;19;109122;-88
2023/03/17 08:04:26;;;;;;;;;;;11.50;99.90;;;;;;7344824;19;110493;-88
2023/03/17 08:06:53;;;;;;;;;;;11.60;99.90;;;;;;7344261;19;109440;-88
2023/03/17 08:09:23;;;;;;;;;;;11.70;99.90;;;;;;7346006;19;108206;-88
2023/03/17 08:11:50;;;;;;;;;;;11.70;99.90;;;;;;7340917;19;108769;-88
2023/03/17 08:14:17;;;;;;;;;;;11.80;99.90;;;;;;7340456;19;111401;-87
2023/03/17 08:16:44;;;;;;;;;;;11.90;99.90;;;;;;7340417;19;110526;-88
2023/03/17 08:19:11;;;;;;;;;;;12.00;99.90;;;;;;7342730;19;108686;-88
2023/03/17 08:21:38;;;;;;;;;;;12.10;99.90;;;;;;7341139;19;108841;-87
2023/03/17 08:24:06;;;;;;;;;;;12.20;99.90;;;;;;7340479;19;110285;-89
2023/03/17 08:26:33;;;;;;;;;;;12.30;99.90;;;;;;7334037;19;109633;-88
2023/03/17 08:29:00;;;;;;;;;;;12.40;99.90;;;;;;7337583;19;111588;-90
2023/03/17 08:31:27;;;;;;;;;;;12.50;99.90;;;;;;7337378;19;113076;-89
2023/03/17 08:33:55;;;;;;;;;;;12.50;99.90;;;;;;7336788;19;108242;-89
2023/03/17 08:36:23;;;;;;;;;;;12.60;99.90;;;;;;7336162;19;110043;-89
2023/03/17 08:38:50;;;;;;;;;;;12.80;99.90;;;;;;7337962;19;108901;-88
2023/03/17 08:41:18;;;;;;;;;;;12.80;99.90;;;;;;7335779;19;109178;-88
2023/03/17 08:43:46;;;;;;;;;;;12.90;99.90;;;;;;7337915;19;110518;-89
2023/03/17 08:46:17;;;;;;;;;;;12.90;99.90;;;;;;7335830;19;108441;-89
2023/03/17 08:48:45;;;;;;;;;;;13.10;99.90;;;;;;7335761;19;109348;-89
2023/03/17 08:51:13;;;;;;;;;;;13.20;99.90;;;;;;7337397;19;112498;-89
2023/03/17 08:53:43;;;;;;;;;;;13.30;99.90;;;;;;7339139;19;111473;-88
2023/03/17 08:56:11;;;;;;;;;;;13.30;99.90;;;;;;7334035;19;110567;-89
2023/03/17 08:58:38;;;;;;;;;;;13.40;99.90;;;;;;7334709;19;109157;-89
2023/03/17 09:01:05;;;;;;;;;;;13.40;99.90;;;;;;7332913;19;110690;-89
2023/03/17 09:03:33;;;;;;;;;;;13.40;99.90;;;;;;7333276;19;113413;-88
2023/03/17 09:06:01;;;;;;;;;;;13.40;99.90;;;;;;7332746;19;109645;-88
2023/03/17 09:08:29;;;;;;;;;;;13.50;99.90;;;;;;7333843;19;109268;-88
2023/03/17 09:10:55;;;;;;;;;;;13.60;99.90;;;;;;7335314;19;110829;-88
2023/03/17 09:13:23;;;;;;;;;;;13.60;99.90;;;;;;7337208;19;108732;-89
2023/03/17 09:15:49;;;;;;;;;;;13.70;99.90;;;;;;7336712;19;111572;-89
2023/03/17 09:18:18;;;;;;;;;;;13.80;99.90;;;;;;7334171;19;109227;-87
2023/03/17 09:20:47;;;;;;;;;;;13.90;99.90;;;;;;7335532;19;108442;-89
2023/03/17 09:23:14;;;;;;;;;;;14.00;99.90;;;;;;7330889;19;109570;-88
2023/03/17 09:25:41;;;;;;;;;;;14.00;99.90;;;;;;7332108;19;108652;-88
2023/03/17 09:28:10;;;;;;;;;;;14.00;99.90;;;;;;7331047;19;108859;-88
2023/03/17 09:30:39;;;;;;;;;;;14.10;99.90;;;;;;7333194;19;110495;-88
2023/03/17 09:33:07;;;;;;;;;;;14.10;99.90;;;;;;7333406;19;109986;-88
2023/03/17 09:35:34;;;;;;;;;;;14.10;99.90;;;;;;7330353;19;110617;-89
2023/03/17 09:38:01;;;;;;;;;;;14.20;99.90;;;;;;7340091;19;110182;-88
2023/03/17 09:40:35;;;;;;;;;;;14.20;99.90;;;;;;7332733;19;111851;-89
2023/03/17 09:43:01;;;;;;;;;;;14.20;99.90;;;;;;7337130;19;110134;-88
2023/03/17 09:45:33;;;;;;;;;;;14.30;99.90;;;;;;7333772;19;108398;-88
2023/03/17 09:48:03;;;;;;;;;;;14.20;99.90;;;;;;7334996;19;108995;-89
2023/03/17 09:50:54;;;;;;;;;;;14.30;99.90;;;;;;7330280;19;112693;-89
2023/03/17 09:53:41;;;;;;;;;;;14.30;99.90;;;;;;7335740;19;110314;-88
2023/03/17 09:56:13;;;;;;;;;;;14.30;99.90;;;;;;7333405;19;110059;-89
2023/03/17 09:58:43;;;;;;;;;;;14.30;99.90;;;;;;7330650;19;110410;-88
2023/03/17 10:01:12;;;;;;;;;;;14.40;99.90;;;;;;7338974;19;108661;-89
2023/03/17 10:03:39;;;;;;;;;;;14.40;99.90;;;;;;7329495;19;111031;-89
2023/03/17 10:06:26;;;;;;;;;;;14.50;99.90;;;;;;7331021;19;108727;-88
2023/03/17 10:09:01;;;;;;;;;;;14.50;99.90;;;;;;7331417;19;109182;-88
2023/03/17 10:11:38;;;;;;;;;;;14.60;99.90;;;;;;7335436;19;110528;-87
2023/03/17 10:14:23;;;;;;;;;;;14.60;99.90;;;;;;7333639;19;109020;-88
2023/03/17 10:16:54;;;;;;;;;;;14.70;99.90;;;;;;7333962;19;109313;-86
2023/03/17 10:19:29;;;;;;;;;;;14.80;99.90;;;;;;7327168;19;112950;-85
2023/03/17 10:22:01;;;;;;;;;;;14.80;99.90;;;;;;7336708;19;109767;-86
2023/03/17 10:24:30;;;;;;;;;;;14.80;99.90;;;;;;7333985;19;111856;-86
2023/03/17 10:26:59;;;;;;;;;;;14.90;99.90;;;;;;7331512;19;109802;-86
2023/03/17 10:29:26;;;;;;;;;;;15.10;99.90;;;;;;7333572;19;111471;-86
2023/03/17 10:31:55;;;;;;;;;;;15.20;99.90;;;;;;7327524;19;109755;-89
2023/03/17 10:34:26;;;;;;;;;;;15.40;99.90;;;;;;7332456;19;108704;-86
2023/03/17 10:36:55;;;;;;;;;;;15.50;99.90;;;;;;7328806;19;109766;-86
2023/03/17 10:39:23;;;;;;;;;;;15.60;99.90;;;;;;7331064;19;111090;-86
2023/03/17 10:41:55;;;;;;;;;;;15.70;99.90;;;;;;7328504;19;109039;-88
2023/03/17 10:44:36;;;;;;;;;;;15.80;99.90;;;;;;7334366;19;111708;-86
2023/03/17 10:47:03;;;;;;;;;;;16.00;99.90;;;;;;7332284;19;109341;-86
2023/03/17 10:49:36;;;;;;;;;;;16.10;99.90;;;;;;7332456;19;113027;-87
2023/03/17 10:52:16;;;;;;;;;;;16.20;99.90;;;;;;7328980;19;110693;-86
2023/03/17 10:54:45;;;;;;;;;;;16.30;99.90;;;;;;7330401;19;110331;-86
2023/03/17 10:57:14;;;;;;;;;;;16.50;99.90;;;;;;7329127;19;114104;-86
2023/03/17 11:00:03;;;;;;;;;;;16.50;99.90;;;;;;7330114;19;110656;-85
2023/03/17 11:02:35;;;;;;;;;;;16.60;99.90;;;;;;7328287;19;108424;-85
2023/03/17 11:05:03;;;;;;;;;;;16.80;99.90;;;;;;7330515;19;110002;-87
2023/03/17 11:07:37;;;;;;;;;;;16.90;99.90;;;;;;7333376;19;110227;-86
2023/03/17 11:10:17;;;;;;;;;;;17.10;99.90;;;;;;7331132;19;111369;-86
2023/03/17 11:12:46;;;;;;;;;;;17.20;99.90;;;;;;7326562;19;112022;-86
2023/03/17 11:15:18;;;;;;;;;;;17.30;99.90;;;;;;7331021;19;108853;-86
2023/03/17 11:17:57;;;;;;;;;;;17.40;99.90;;;;;;7329435;19;109798;-85
2023/03/17 11:20:35;;;;;;;;;;;17.50;99.90;;;;;;7329997;19;110023;-84
2023/03/17 11:23:21;;;;;;;;;;;17.50;99.90;;;;;;7331347;19;109195;-85
2023/03/17 11:25:54;;;;;;;;;;;17.60;99.90;;;;;;7329216;19;112580;-86
2023/03/17 11:28:25;;;;;;;;;;;17.60;99.90;;;;;;7328182;19;112758;-85
2023/03/17 11:31:14;;;;;;;;;;;17.80;99.90;;;;;;7337348;19;109205;-85
2023/03/17 11:33:56;;;;;;;;;;;18.00;99.90;;;;;;7336000;19;110971;-85
2023/03/17 11:36:26;;;;;;;;;;;18.00;99.90;;;;;;7332395;19;110383;-85
2023/03/17 11:39:04;;;;;;;;;;;18.00;99.90;;;;;;7330525;19;109649;-85
2023/03/17 11:41:55;;;;;;;;;;;18.10;99.90;;;;;;7334346;19;110094;-85
2023/03/17 11:44:35;;;;;;;;;;;18.20;99.90;;;;;;7336577;19;109012;-86
2023/03/17 11:47:18;;;;;;;;;;;18.30;99.90;;;;;;7336228;19;109636;-86
2023/03/17 11:49:48;;;;;;;;;;;18.40;99.90;;;;;;7334655;19;112909;-86
2023/03/17 11:52:18;;;;;;;;;;;18.50;99.90;;;;;;7333323;19;109473;-86
2023/03/17 11:54:51;;;;;;;;;;;18.60;99.90;;;;;;7339794;19;110806;-86
2023/03/17 11:57:23;;;;;;;;;;;18.60;99.90;;;;;;7335487;19;108647;-86
2023/03/17 11:59:53;;;;;;;;;;;18.70;99.90;;;;;;7333496;19;108922;-87
2023/03/17 12:02:44;;;;;;;;;;;18.70;99.90;;;;;;7336367;19;110719;-85
2023/03/17 12:05:14;;;;;;;;;;;18.70;99.90;;;;;;7334846;19;110753;-87
2023/03/17 12:07:50;;;;;;;;;;;18.80;99.90;;;;;;7337068;19;110644;-86
2023/03/17 12:10:44;;;;;;;;;;;18.90;99.90;;;;;;7334758;19;110270;-86
2023/03/17 12:13:13;;;;;;;;;;;19.00;99.90;;;;;;7340326;19;108924;-86
2023/03/17 12:15:49;;;;;;;;;;;19.10;99.90;;;;;;7337748;19;110545;-86
2023/03/17 12:18:20;;;;;;;;;;;19.10;99.90;;;;;;7334912;19;109408;-85
2023/03/17 12:20:51;;;;;;;;;;;19.30;99.90;;;;;;7334770;19;111937;-86
2023/03/17 12:23:30;;;;;;;;;;;19.40;99.90;;;;;;7341012;19;110993;-86
2023/03/17 12:26:18;;;;;;;;;;;19.40;99.90;;;;;;7341971;19;108521;-85
2023/03/17 12:28:51;;;;;;;;;;;19.50;99.90;;;;;;7335247;19;108888;-86
2023/03/17 12:31:25;;;;;;;;;;;19.40;99.90;;;;;;7335381;19;109896;-85
2023/03/17 12:33:53;;;;;;;;;;;19.50;99.90;;;;;;7337224;19;109889;-86
2023/03/17 12:36:23;;;;;;;;;;;19.60;99.90;;;;;;7335694;19;108956;-86
2023/03/17 12:38:50;;;;;;;;;;;19.70;99.90;;;;;;7339842;19;113651;-85
2023/03/17 12:41:30;;;;;;;;;;;19.80;99.90;;;;;;7336699;19;113206;-85
2023/03/17 12:43:57;;;;;;;;;;;19.90;99.90;;;;;;7330642;19;112857;-86
2023/03/17 12:46:27;;;;;;;;;;;20.10;99.90;;;;;;7334706;19;108867;-86
2023/03/17 12:49:10;;;;;;;;;;;20.20;99.90;;;;;;7332831;19;109433;-86
2023/03/17 12:51:38;;;;;;;;;;;20.20;99.90;;;;;;7332683;19;110123;-86
2023/03/17 12:54:25;;;;;;;;;;;20.30;99.90;;;;;;7335443;19;109222;-86
2023/03/17 12:56:59;;;;;;;;;;;20.40;99.90;;;;;;7332366;19;111536;-86
2023/03/17 12:59:26;;;;;;;;;;;20.60;99.90;;;;;;7333182;19;110024;-86
2023/03/17 13:01:56;;;;;;;;;;;20.60;99.90;;;;;;7343296;19;108984;-86
2023/03/17 13:04:26;;;;;;;;;;;20.60;99.90;;;;;;7335253;19;110750;-86
2023/03/17 13:07:02;;;;;;;;;;;20.60;99.90;;;;;;7335683;19;109492;-85
2023/03/17 13:09:33;;;;;;;;;;;20.70;99.90;;;;;;7334060;19;109035;-86
2023/03/17 13:12:02;;;;;;;;;;;20.70;99.90;;;;;;7335893;19;113135;-86
2023/03/17 13:14:42;;;;;;;;;;;20.80;99.90;;;;;;7330410;19;110423;-86
2023/03/17 13:17:16;;;;;;;;;;;20.90;99.90;;;;;;7332881;19;108921;-85
2023/03/17 13:19:54;;;;;;;;;;;20.90;99.90;;;;;;7330574;19;112908;-86
2023/03/17 13:22:21;;;;;;;;;;;21.00;99.90;;;;;;7337660;19;109890;-86
2023/03/17 13:24:52;;;;;;;;;;;21.10;99.90;;;;;;7335627;19;108332;-86
2023/03/17 13:27:31;;;;;;;;;;;21.10;99.90;;;;;;7334081;19;108883;-86
2023/03/17 13:30:00;;;;;;;;;;;21.20;99.90;;;;;;7335411;19;108441;-86
2023/03/17 13:32:26;;;;;;;;;;;21.30;99.90;;;;;;7331778;19;110543;-86
2023/03/17 13:35:12;;;;;;;;;;;21.40;99.90;;;;;;7335307;19;109545;-86
2023/03/17 13:37:59;;;;;;;;;;;21.50;99.90;;;;;;7326925;19;110220;-85
2023/03/17 13:40:42;;;;;;;;;;;21.50;99.90;;;;;;7329073;19;109511;-86
2023/03/17 13:43:48;;;;;;;;;;;21.50;99.90;;;;;;7332401;19;108627;-86
2023/03/17 13:46:21;;;;;;;;;;;21.60;99.90;;;;;;7328951;19;109242;-86
2023/03/17 13:48:48;;;;;;;;;;;21.70;99.90;;;;;;7339549;19;113696;-85
2023/03/17 13:51:15;;;;;;;;;;;21.70;99.90;;;;;;7351058;19;111492;-87
2023/03/17 13:53:52;;;;;;;;;;;21.70;99.90;;;;;;7367071;19;111125;-86
2023/03/17 13:56:28;;;;;;;;;;;21.70;99.90;;;;;;7367434;19;108375;-86
2023/03/17 13:59:00;;;;;;;;;;;21.80;99.90;;;;;;7368398;19;115659;-86
2023/03/17 14:01:29;;;;;;;;;;;21.80;99.80;;;;;;7365905;19;109899;-86
2023/03/17 14:03:56;;;;;;;;;;;21.80;99.20;;;;;;7370327;19;108662;-86
2023/03/17 14:06:26;;;;;;;;;;;21.80;99.90;;;;;;7367945;19;108295;-86
2023/03/17 14:08:56;;;;;;;;;;;21.80;99.90;;;;;;7366886;19;109518;-86
2023/03/17 14:11:22;;;;;;;;;;;21.90;99.90;;;;;;7368623;19;108516;-86
2023/03/17 14:13:52;;;;;;;;;;;21.90;99.90;;;;;;7366380;19;109097;-86
2023/03/17 14:18:51;;;;;;;;;;;21.80;99.50;;;;;;7327582;19;109222;-67
2023/03/17 14:21:23;;;;;;;;;;;21.80;99.90;;;;;;7334499;19;109091;-67
2023/03/17 14:23:56;;;;;;;;;;;21.70;99.90;;;;;;7333828;19;109233;-67